Time;durP1;ratioP1;P1;durP2;ratioP2;P2;SDS_P1;SDS_P2;PMS_P1;PMS_P2;Temp;Humidity;BMP_temperature;BMP_pressure;BME280_temperature;BME280_humidity;BME280_pressure;Samples;Min_cycle;Max_cycle;Signal;HPM_P1;HPM_P2
2022/12/12 00:01:00;;;;;;;;;39.75;30.75;;;;;2.56;59.72;100522.53;5045273;28;45573;-61
2022/12/12 00:03:26;;;;;;;;;36.00;29.75;;;;;2.48;59.34;100506.28;5040770;28;45680;-59
2022/12/12 00:05:54;;;;;;;;;38.50;34.75;;;;;2.60;59.33;100524.50;5042171;28;45615;-60
2022/12/12 00:08:20;;;;;;;;;32.25;28.00;;;;;2.60;59.64;100523.59;5044310;28;45528;-59
2022/12/12 00:10:45;;;;;;;;;36.25;35.75;;;;;2.50;59.65;100514.28;5038633;28;45387;-59
2022/12/12 00:13:10;;;;;;;;;36.75;29.00;;;;;2.53;59.79;100517.09;5047259;28;45668;-61
2022/12/12 00:15:36;;;;;;;;;36.50;22.75;;;;;2.34;60.13;100478.25;5046411;28;45672;-59
2022/12/12 00:18:01;;;;;;;;;33.50;29.25;;;;;2.67;59.91;100518.72;5038609;28;46156;-61
2022/12/12 00:20:26;;;;;;;;;25.50;24.50;;;;;2.71;59.20;100514.56;5036439;28;45392;-60
2022/12/12 00:22:52;;;;;;;;;33.75;29.75;;;;;2.67;59.66;100520.47;5040327;28;45326;-59
2022/12/12 00:25:17;;;;;;;;;34.50;31.75;;;;;2.60;59.80;100495.50;5038432;28;45454;-59
2022/12/12 00:27:42;;;;;;;;;33.00;25.75;;;;;2.71;59.37;100509.28;5041613;28;62523;-60
2022/12/12 00:30:08;;;;;;;;;30.75;24.75;;;;;2.78;59.83;100506.13;5035091;28;45527;-60
2022/12/12 00:32:34;;;;;;;;;35.75;28.50;;;;;2.91;59.54;100512.97;5044396;28;45315;-59
2022/12/12 00:34:59;;;;;;;;;33.00;29.00;;;;;2.82;59.27;100507.19;5040886;28;45291;-61
2022/12/12 00:37:24;;;;;;;;;32.50;30.25;;;;;2.85;59.42;100525.84;5041898;28;45417;-61
2022/12/12 00:39:50;;;;;;;;;34.00;23.00;;;;;2.85;59.23;100532.00;5039572;28;45491;-60
2022/12/12 00:42:16;;;;;;;;;38.00;21.75;;;;;2.86;59.29;100535.56;5037759;28;45521;-61
2022/12/12 00:44:41;;;;;;;;;28.50;24.75;;;;;2.88;59.12;100539.19;5038025;28;45352;-62
2022/12/12 00:47:06;;;;;;;;;36.00;25.50;;;;;2.78;59.37;100521.97;5040743;28;46844;-59
2022/12/12 00:49:32;;;;;;;;;39.25;27.00;;;;;2.81;59.77;100540.59;5035484;28;45502;-61
2022/12/12 00:51:57;;;;;;;;;36.75;26.50;;;;;2.80;59.37;100540.50;5035478;28;45643;-59
2022/12/12 00:54:22;;;;;;;;;38.25;24.50;;;;;2.82;59.41;100523.97;5044241;28;46373;-60
2022/12/12 00:56:48;;;;;;;;;34.25;25.00;;;;;2.94;59.25;100534.25;5041739;28;52375;-61
2022/12/12 00:59:13;;;;;;;;;31.50;22.25;;;;;3.03;58.86;100526.81;5042244;28;45544;-62
2022/12/12 01:01:39;;;;;;;;;32.75;24.75;;;;;2.98;58.86;100525.66;5037523;28;45409;-60
2022/12/12 01:04:05;;;;;;;;;39.75;30.00;;;;;2.97;58.97;100526.50;5046212;28;45513;-59
2022/12/12 01:06:30;;;;;;;;;30.25;26.75;;;;;2.88;59.04;100512.81;5039678;28;46767;-61
2022/12/12 01:08:56;;;;;;;;;39.00;25.25;;;;;3.03;58.83;100534.72;5038066;28;45355;-59
2022/12/12 01:11:22;;;;;;;;;40.75;24.50;;;;;3.07;58.85;100527.88;5034434;28;45642;-60
2022/12/12 01:13:50;;;;;;;;;24.50;23.25;;;;;3.13;58.58;100523.84;5045266;28;45221;-60
2022/12/12 01:16:16;;;;;;;;;34.75;22.00;;;;;3.17;58.41;100527.56;5034962;28;46317;-61
2022/12/12 01:18:42;;;;;;;;;25.50;21.25;;;;;3.13;58.52;100509.72;5040576;28;45497;-61
2022/12/12 01:21:10;;;;;;;;;38.00;23.00;;;;;3.21;58.05;100524.22;5044970;28;45394;-59
2022/12/12 01:23:36;;;;;;;;;35.00;23.25;;;;;2.90;58.27;100495.31;5036847;28;45346;-61
2022/12/12 01:26:04;;;;;;;;;25.75;22.25;;;;;2.99;58.74;100534.47;5036133;28;46066;-62
2022/12/12 01:28:30;;;;;;;;;31.50;26.50;;;;;2.94;58.92;100526.34;5045722;28;45325;-62
2022/12/12 01:30:55;;;;;;;;;28.00;23.50;;;;;2.94;58.90;100535.16;5036951;28;45501;-61
2022/12/12 01:33:21;;;;;;;;;29.00;28.50;;;;;2.97;58.56;100537.06;5042381;28;45598;-61
2022/12/12 01:35:46;;;;;;;;;37.50;21.75;;;;;3.02;58.18;100538.22;5040956;28;45338;-62
2022/12/12 01:38:11;;;;;;;;;27.00;23.25;;;;;3.08;58.22;100535.88;5040640;28;45303;-61
2022/12/12 01:40:37;;;;;;;;;29.75;21.50;;;;;3.06;58.07;100524.34;5040805;28;45538;-60
2022/12/12 01:43:09;;;;;;;;;28.50;24.25;;;;;3.05;57.94;100534.81;5036509;28;45420;-59
2022/12/12 01:45:53;;;;;;;;;43.50;27.50;;;;;3.06;58.19;100539.28;5035757;28;45484;-61
2022/12/12 01:48:21;;;;;;;;;36.00;27.75;;;;;3.06;58.09;100537.53;5039523;28;45422;-64
2022/12/12 01:50:47;;;;;;;;;30.25;25.25;;;;;3.04;57.76;100531.28;5037712;28;45428;-61
2022/12/12 01:53:14;;;;;;;;;18.50;18.50;;;;;2.91;57.76;100547.28;5044008;28;45477;-59
2022/12/12 01:55:40;;;;;;;;;23.75;19.75;;;;;2.82;58.00;100550.34;5043881;28;48653;-60
2022/12/12 01:58:06;;;;;;;;;32.50;27.00;;;;;2.64;58.67;100515.97;5037105;28;45420;-60
2022/12/12 02:00:31;;;;;;;;;33.75;24.50;;;;;2.89;58.46;100541.03;5038671;28;45330;-60
2022/12/12 02:02:57;;;;;;;;;23.25;17.75;;;;;2.93;57.88;100532.44;5041325;28;45489;-59
2022/12/12 02:05:29;;;;;;;;;22.75;20.00;;;;;2.96;57.91;100543.16;5036914;28;46234;-60
2022/12/12 02:07:57;;;;;;;;;28.75;23.75;;;;;2.96;58.03;100527.31;5039164;28;45266;-59
2022/12/12 02:10:22;;;;;;;;;25.25;22.25;;;;;3.06;58.05;100532.25;5037988;28;45265;-61
2022/12/12 02:12:48;;;;;;;;;25.00;23.25;;;;;3.14;57.57;100532.66;5034912;28;45370;-60
2022/12/12 02:15:13;;;;;;;;;30.00;20.50;;;;;3.19;57.11;100541.72;5038922;28;45615;-60
2022/12/12 02:17:54;;;;;;;;;31.25;27.25;;;;;3.22;57.38;100539.25;5036932;28;45329;-58
2022/12/12 02:20:31;;;;;;;;;32.25;22.75;;;;;3.13;57.08;100529.13;5049714;28;45605;-59
2022/12/12 02:23:18;;;;;;;;;32.00;23.50;;;;;3.11;57.13;100535.16;5044256;28;45436;-60
2022/12/12 02:26:09;;;;;;;;;32.00;26.00;;;;;3.03;57.31;100529.44;5049553;28;45378;-60
2022/12/12 02:28:55;;;;;;;;;39.00;22.00;;;;;2.94;57.81;100547.44;5041086;28;45476;-60
2022/12/12 02:31:41;;;;;;;;;31.50;23.25;;;;;2.99;58.03;100537.13;5036468;28;45512;-59
2022/12/12 02:34:18;;;;;;;;;29.75;23.25;;;;;3.09;57.79;100544.72;5038643;28;45490;-60
2022/12/12 02:37:11;;;;;;;;;28.50;24.50;;;;;3.09;57.69;100537.69;5041007;28;46610;-60
2022/12/12 02:40:01;;;;;;;;;32.25;27.00;;;;;3.05;57.65;100532.16;5035922;28;45404;-60
2022/12/12 02:42:42;;;;;;;;;31.00;24.25;;;;;3.11;57.62;100533.41;5046874;28;45341;-58
2022/12/12 02:45:23;;;;;;;;;27.25;24.25;;;;;3.17;57.45;100542.47;5040326;28;45355;-59
2022/12/12 02:47:58;;;;;;;;;28.00;22.50;;;;;3.17;56.93;100542.47;5047752;28;46380;-59
2022/12/12 02:50:26;;;;;;;;;30.00;20.50;;;;;3.21;57.08;100555.91;5040554;28;45774;-60
2022/12/12 02:52:51;;;;;;;;;38.50;27.25;;;;;3.25;57.24;100541.13;5036039;28;45537;-62
2022/12/12 02:55:17;;;;;;;;;22.00;19.50;;;;;3.24;57.15;100539.34;5039489;28;45248;-59
2022/12/12 02:57:43;;;;;;;;;33.50;29.25;;;;;3.25;56.59;100542.06;5040006;28;46465;-60
2022/12/12 03:00:15;;;;;;;;;26.75;19.50;;;;;3.26;56.68;100535.94;5046082;28;45625;-60
2022/12/12 03:09:44;;;;;;;;;29.50;22.25;;;;;3.12;57.05;100516.75;5039763;28;45835;-59
2022/12/12 03:12:19;;;;;;;;;35.25;25.50;;;;;3.14;56.93;100527.38;5046575;28;45564;-60
2022/12/12 03:15:03;;;;;;;;;33.00;25.75;;;;;2.89;57.59;100509.34;5039846;28;45484;-59
2022/12/12 03:17:55;;;;;;;;;30.75;23.25;;;;;2.98;57.44;100517.75;5040618;28;45603;-59
2022/12/12 03:20:36;;;;;;;;;25.75;22.75;;;;;2.98;57.67;100522.13;5042937;28;46448;-60
2022/12/12 03:23:17;;;;;;;;;35.75;19.00;;;;;3.03;57.63;100526.81;5038502;28;45381;-59
2022/12/12 03:26:05;;;;;;;;;29.00;20.75;;;;;3.06;57.51;100524.34;5037850;28;45351;-60
2022/12/12 03:28:36;;;;;;;;;28.25;20.50;;;;;3.06;57.93;100523.44;5043800;28;45390;-59
2022/12/12 03:31:08;;;;;;;;;26.50;21.50;;;;;3.10;58.16;100523.69;5047094;28;45542;-60
2022/12/12 03:33:45;;;;;;;;;22.50;15.50;;;;;3.17;57.60;100524.91;5042238;28;45507;-61
2022/12/12 03:36:21;;;;;;;;;31.75;24.00;;;;;3.21;57.48;100516.31;5039709;28;45644;-59
2022/12/12 03:39:01;;;;;;;;;30.50;18.75;;;;;3.34;57.23;100524.88;5044402;28;45486;-59
2022/12/12 03:41:34;;;;;;;;;29.00;20.50;;;;;3.32;57.20;100511.59;5048141;28;46700;-60
2022/12/12 03:44:21;;;;;;;;;27.75;18.00;;;;;3.37;57.21;100518.03;5047903;28;45338;-61
2022/12/12 03:46:53;;;;;;;;;26.75;20.50;;;;;3.41;56.62;100521.72;5038266;28;45546;-59
2022/12/12 03:49:33;;;;;;;;;31.50;22.50;;;;;3.44;57.14;100529.81;5037301;28;45654;-59
2022/12/12 03:52:09;;;;;;;;;24.00;16.25;;;;;3.49;57.15;100539.75;5038312;28;45524;-61
2022/12/12 03:54:42;;;;;;;;;23.50;19.75;;;;;3.52;56.82;100528.47;5044897;28;45709;-60
2022/12/12 03:57:17;;;;;;;;;20.00;18.75;;;;;3.53;56.73;100534.66;5038083;28;45346;-60
2022/12/12 03:59:58;;;;;;;;;19.25;18.00;;;;;3.43;56.58;100541.19;5040517;28;45551;-62
2022/12/12 04:02:33;;;;;;;;;19.25;19.25;;;;;3.40;56.97;100531.38;5039510;28;46421;-60
2022/12/12 04:05:17;;;;;;;;;20.75;14.75;;;;;3.46;56.61;100538.72;5042793;28;45475;-60
2022/12/12 04:07:53;;;;;;;;;22.25;19.25;;;;;3.40;56.88;100547.22;5040670;28;45409;-61
2022/12/12 04:13:34;;;;;;;;;31.00;19.50;;;;;3.32;57.12;100551.22;5041866;28;45764;-59
2022/12/12 04:16:19;;;;;;;;;22.25;20.00;;;;;3.34;57.31;100551.28;5035721;28;45438;-61
2022/12/12 04:18:55;;;;;;;;;29.25;22.75;;;;;3.32;57.03;100548.56;5034383;28;45409;-60
2022/12/12 04:24:29;;;;;;;;;28.25;20.75;;;;;3.32;57.16;100554.75;5038713;28;45789;-60
2022/12/12 04:27:07;;;;;;;;;25.50;18.00;;;;;3.32;57.05;100567.06;5036675;28;45631;-60
2022/12/12 04:29:54;;;;;;;;;24.50;18.25;;;;;3.37;57.11;100556.72;5042291;28;45442;-60
2022/12/12 04:32:30;;;;;;;;;26.25;16.50;;;;;3.34;56.87;100552.19;5046753;28;45413;-60
2022/12/12 04:35:07;;;;;;;;;28.50;21.00;;;;;3.41;56.75;100559.59;5040720;28;46466;-60
2022/12/12 04:37:38;;;;;;;;;32.00;22.50;;;;;3.47;56.79;100562.56;5041018;28;45725;-61
2022/12/12 04:40:08;;;;;;;;;25.75;22.00;;;;;3.49;56.51;100555.59;5037570;28;45420;-60
2022/12/12 04:42:42;;;;;;;;;25.50;17.25;;;;;3.50;56.56;100546.88;5036921;28;45549;-61
2022/12/12 04:45:14;;;;;;;;;33.00;20.25;;;;;3.59;56.84;100561.38;5045755;28;46561;-60
2022/12/12 04:47:43;;;;;;;;;26.25;22.50;;;;;3.53;56.65;100563.69;5034526;28;45493;-60
2022/12/12 04:50:09;;;;;;;;;28.00;17.25;;;;;3.47;56.70;100565.19;5046167;28;45410;-60
2022/12/12 04:52:38;;;;;;;;;29.25;23.00;;;;;3.43;56.81;100552.69;5042228;28;45461;-60
2022/12/12 04:55:18;;;;;;;;;33.75;24.75;;;;;3.21;57.29;100515.41;5041450;28;45417;-60
2022/12/12 04:57:50;;;;;;;;;32.25;23.25;;;;;3.51;56.89;100563.63;5042831;28;45290;-62
2022/12/12 05:00:18;;;;;;;;;37.50;25.00;;;;;3.53;56.75;100561.06;5040069;28;45540;-59
2022/12/12 05:02:50;;;;;;;;;37.50;26.00;;;;;3.58;57.13;100551.63;5043332;28;46834;-60
2022/12/12 05:05:31;;;;;;;;;45.00;30.25;;;;;3.56;56.74;100555.94;5040890;28;45401;-60
2022/12/12 05:08:05;;;;;;;;;25.50;22.25;;;;;3.57;56.94;100561.31;5041210;28;45413;-60
2022/12/12 05:10:30;;;;;;;;;38.50;30.25;;;;;3.52;56.74;100549.59;5037463;28;45325;-59
2022/12/12 05:12:58;;;;;;;;;83.75;60.75;;;;;3.48;56.61;100547.59;5041140;28;45365;-59
2022/12/12 05:15:25;;;;;;;;;79.25;58.50;;;;;3.40;56.90;100539.31;5031331;28;45615;-59
2022/12/12 05:18:11;;;;;;;;;58.50;37.00;;;;;3.45;57.32;100534.28;5035589;28;45362;-59
2022/12/12 05:20:36;;;;;;;;;50.25;34.00;;;;;3.36;56.75;100528.50;5040526;28;45483;-60
2022/12/12 05:23:02;;;;;;;;;35.00;26.25;;;;;3.42;57.14;100563.16;5035306;28;45454;-59
2022/12/12 05:25:28;;;;;;;;;28.50;23.50;;;;;3.34;57.64;100556.56;5035209;28;45493;-59
2022/12/12 05:27:53;;;;;;;;;39.00;31.00;;;;;3.41;57.32;100564.88;5040826;28;45479;-58
2022/12/12 05:30:19;;;;;;;;;31.00;21.75;;;;;3.49;56.79;100562.63;5042737;28;45627;-60
2022/12/12 05:32:44;;;;;;;;;31.50;23.25;;;;;3.47;57.22;100559.91;5044727;28;45283;-60
2022/12/12 05:35:10;;;;;;;;;29.25;25.25;;;;;3.46;57.13;100536.97;5038916;28;45621;-59
2022/12/12 05:37:35;;;;;;;;;32.25;27.00;;;;;3.32;57.22;100530.97;5044267;28;45556;-60
2022/12/12 05:40:01;;;;;;;;;33.25;29.50;;;;;3.37;57.35;100525.94;5036338;28;45634;-60
2022/12/12 05:42:26;;;;;;;;;33.75;29.00;;;;;3.46;57.31;100531.69;5041661;28;45466;-59
2022/12/12 05:44:51;;;;;;;;;28.00;27.00;;;;;3.46;57.37;100541.34;5037763;28;57632;-60
2022/12/12 05:47:17;;;;;;;;;38.00;23.00;;;;;3.51;57.13;100539.84;5049515;28;45468;-61
2022/12/12 05:49:43;;;;;;;;;29.00;23.25;;;;;3.50;57.22;100538.94;5040412;28;45469;-59
2022/12/12 05:52:09;;;;;;;;;31.75;24.00;;;;;3.55;57.19;100543.53;5042641;28;45590;-59
2022/12/12 05:54:34;;;;;;;;;36.50;25.25;;;;;3.50;57.45;100541.59;5049877;28;46033;-60
2022/12/12 05:56:59;;;;;;;;;32.00;27.50;;;;;3.53;57.24;100534.66;5040313;28;45521;-60
2022/12/12 05:59:25;;;;;;;;;32.25;27.50;;;;;3.57;57.38;100537.53;5044934;28;45418;-59
2022/12/12 06:01:51;;;;;;;;;36.50;23.25;;;;;3.61;56.70;100549.16;5041345;28;45360;-61
2022/12/12 06:04:16;;;;;;;;;40.75;24.25;;;;;3.54;57.24;100554.97;5047073;28;46094;-61
2022/12/12 06:06:41;;;;;;;;;34.25;22.75;;;;;3.49;57.19;100558.25;5048575;28;45411;-60
2022/12/12 06:09:08;;;;;;;;;28.50;24.25;;;;;3.51;57.10;100566.25;5042125;28;45446;-60
2022/12/12 06:11:33;;;;;;;;;31.00;29.75;;;;;3.44;57.55;100553.56;5042837;28;45459;-61
2022/12/12 06:13:58;;;;;;;;;25.00;19.50;;;;;3.52;57.24;100557.53;5049149;28;45364;-59
2022/12/12 06:16:24;;;;;;;;;37.00;28.75;;;;;3.56;57.39;100558.56;5040652;28;45535;-59
2022/12/12 06:18:51;;;;;;;;;38.50;24.50;;;;;3.46;57.47;100544.00;5037167;28;45284;-61
2022/12/12 06:21:17;;;;;;;;;28.50;23.25;;;;;3.56;57.27;100566.50;5041084;28;45966;-60
2022/12/12 06:23:43;;;;;;;;;54.25;35.75;;;;;3.42;57.58;100561.41;5034683;28;45530;-62
2022/12/12 06:26:10;;;;;;;;;37.25;32.00;;;;;3.42;58.19;100568.44;5044475;28;45612;-61
2022/12/12 06:28:37;;;;;;;;;39.75;31.00;;;;;3.45;58.23;100568.59;5045979;28;45540;-59
2022/12/12 06:31:02;;;;;;;;;32.75;23.50;;;;;3.41;58.05;100554.31;5043889;28;45523;-60
2022/12/12 06:33:28;;;;;;;;;29.25;23.00;;;;;3.43;58.09;100554.38;5036897;28;46750;-60
2022/12/12 06:35:59;;;;;;;;;31.00;26.75;;;;;3.47;58.31;100573.13;5053739;28;45163;-59
2022/12/12 06:38:25;;;;;;;;;31.50;25.25;;;;;3.52;57.91;100578.66;5049658;28;45527;-59
2022/12/12 06:40:50;;;;;;;;;40.25;28.00;;;;;3.44;57.62;100567.69;5055818;28;45018;-60
2022/12/12 06:43:15;;;;;;;;;31.00;25.25;;;;;3.36;58.09;100568.13;5054833;28;45990;-60
2022/12/12 06:45:41;;;;;;;;;41.25;28.75;;;;;3.34;58.33;100569.78;5052322;28;45441;-60
2022/12/12 06:48:06;;;;;;;;;32.50;27.75;;;;;3.18;58.43;100546.94;5052603;28;45050;-62
2022/12/12 06:50:31;;;;;;;;;29.75;25.25;;;;;2.40;58.29;100416.22;5059746;28;45369;-61
2022/12/12 06:52:57;;;;;;;;;35.50;31.25;;;;;2.31;58.53;100410.47;5042733;28;45853;-61
2022/12/12 06:55:22;;;;;;;;;30.75;27.50;;;;;3.23;58.50;100567.44;5046755;28;46661;-59
2022/12/12 06:57:47;;;;;;;;;31.00;26.75;;;;;3.36;58.24;100576.03;5042863;28;48309;-60
2022/12/12 07:00:13;;;;;;;;;34.75;31.00;;;;;3.40;58.48;100576.28;5045845;28;45525;-62
2022/12/12 07:02:38;;;;;;;;;51.75;31.25;;;;;3.43;58.27;100572.88;5043142;28;45883;-60
2022/12/12 07:05:04;;;;;;;;;31.50;23.75;;;;;3.23;58.26;100545.44;5043608;28;46929;-59
2022/12/12 07:07:29;;;;;;;;;25.00;19.75;;;;;3.36;58.49;100582.22;5049080;28;45572;-60
2022/12/12 07:09:55;;;;;;;;;36.50;27.00;;;;;3.29;58.08;100569.53;5045182;28;45342;-60
2022/12/12 07:12:20;;;;;;;;;49.50;33.00;;;;;3.18;58.07;100555.75;5035025;28;47162;-60
2022/12/12 07:14:45;;;;;;;;;45.25;32.50;;;;;3.22;58.54;100557.75;5042959;28;60426;-60
2022/12/12 07:17:10;;;;;;;;;33.00;29.50;;;;;3.24;58.20;100556.06;5037218;28;45784;-60
2022/12/12 07:19:36;;;;;;;;;34.00;26.25;;;;;3.34;58.64;100564.50;5044932;28;45582;-61
2022/12/12 07:22:01;;;;;;;;;30.50;27.75;;;;;3.32;57.68;100567.94;5058796;28;46405;-60
2022/12/12 07:24:26;;;;;;;;;32.00;28.00;;;;;3.20;57.66;100580.53;5040740;28;54658;-61
2022/12/12 07:26:52;;;;;;;;;27.25;22.25;;;;;3.10;57.80;100587.03;5042750;28;45544;-61
2022/12/12 07:29:17;;;;;;;;;42.75;31.25;;;;;2.16;58.50;100438.59;5039808;28;47711;-61
2022/12/12 07:31:42;;;;;;;;;50.25;36.50;;;;;2.85;58.57;100573.31;5044734;28;46675;-65
2022/12/12 07:34:08;;;;;;;;;35.50;31.75;;;;;2.96;58.39;100593.28;5038159;28;45306;-61
2022/12/12 07:36:33;;;;;;;;;27.50;22.25;;;;;3.02;58.23;100601.56;5039606;28;45513;-60
2022/12/12 07:38:58;;;;;;;;;35.50;25.00;;;;;2.95;57.80;100602.94;5039265;28;45642;-61
2022/12/12 07:41:24;;;;;;;;;30.00;27.75;;;;;2.85;58.93;100586.53;5050075;28;45562;-62
2022/12/12 07:43:51;;;;;;;;;35.00;30.75;;;;;2.96;58.86;100603.84;5038513;28;45437;-64
2022/12/12 07:46:20;;;;;;;;;43.75;34.50;;;;;3.05;58.71;100603.44;5044102;28;45402;-59
2022/12/12 07:48:46;;;;;;;;;31.75;27.00;;;;;3.17;58.18;100597.91;5046444;28;45497;-59
2022/12/12 07:51:13;;;;;;;;;32.25;31.50;;;;;3.23;58.40;100583.28;5037682;28;46283;-62
2022/12/12 07:53:39;;;;;;;;;35.50;31.75;;;;;3.36;58.12;100587.50;5046597;28;45442;-62
2022/12/12 07:56:06;;;;;;;;;48.50;35.00;;;;;3.36;58.25;100568.13;5040547;28;45403;-60
2022/12/12 07:58:32;;;;;;;;;46.00;33.00;;;;;3.36;57.42;100571.66;5050065;28;45472;-59
2022/12/12 08:00:58;;;;;;;;;59.50;44.00;;;;;3.49;57.16;100600.50;5041432;28;46108;-62
2022/12/12 08:03:23;;;;;;;;;41.00;33.25;;;;;3.55;56.98;100597.31;5049353;28;45472;-59
2022/12/12 08:05:49;;;;;;;;;45.50;33.50;;;;;3.56;56.65;100609.66;5045379;28;45400;-62
2022/12/12 08:08:14;;;;;;;;;32.00;28.00;;;;;3.52;56.55;100604.16;5036278;28;45445;-62
2022/12/12 08:10:40;;;;;;;;;42.50;35.25;;;;;3.57;57.07;100613.22;5050336;28;46144;-60
2022/12/12 08:13:06;;;;;;;;;50.00;36.50;;;;;3.44;56.39;100593.19;5042368;28;45619;-61
2022/12/12 08:15:32;;;;;;;;;37.25;34.25;;;;;3.54;56.57;100624.53;5048922;28;45518;-60
2022/12/12 08:17:58;;;;;;;;;40.50;31.75;;;;;3.53;56.62;100621.81;5038372;28;45609;-60
2022/12/12 08:20:23;;;;;;;;;39.00;24.25;;;;;3.38;56.23;100587.56;5046259;28;45271;-62
2022/12/12 08:22:48;;;;;;;;;44.25;32.00;;;;;3.41;56.77;100596.56;5046930;28;45520;-62
2022/12/12 08:25:14;;;;;;;;;34.50;32.25;;;;;3.49;56.56;100619.00;5040326;28;45537;-60
2022/12/12 08:27:39;;;;;;;;;35.25;28.75;;;;;3.35;56.26;100614.75;5042199;28;45307;-60
2022/12/12 08:30:05;;;;;;;;;43.50;34.75;;;;;3.38;56.26;100637.75;5046273;28;47187;-62
2022/12/12 08:32:31;;;;;;;;;34.75;29.75;;;;;3.21;56.58;100614.00;5041044;28;45614;-59
2022/12/12 08:34:57;;;;;;;;;52.25;37.00;;;;;3.28;56.60;100626.72;5042645;28;45342;-60
2022/12/12 08:37:23;;;;;;;;;32.25;29.75;;;;;3.25;56.51;100615.06;5041894;28;45440;-60
2022/12/12 08:39:48;;;;;;;;;39.25;29.75;;;;;3.37;56.78;100633.31;5039226;28;46801;-60
2022/12/12 08:42:14;;;;;;;;;58.25;41.75;;;;;3.37;56.64;100634.22;5039975;28;45515;-61
2022/12/12 08:44:39;;;;;;;;;55.00;37.00;;;;;3.44;56.09;100648.66;5041709;28;51706;-60
2022/12/12 08:47:05;;;;;;;;;38.25;31.00;;;;;3.34;56.60;100636.69;5037643;28;45629;-61
2022/12/12 08:49:30;;;;;;;;;79.25;55.00;;;;;3.33;56.50;100637.50;5041058;28;45510;-61
2022/12/12 08:51:56;;;;;;;;;37.00;33.00;;;;;3.45;56.63;100648.72;5036377;28;45690;-62
2022/12/12 08:54:22;;;;;;;;;39.25;30.00;;;;;3.51;55.57;100653.41;5038345;28;45346;-62
2022/12/12 08:56:47;;;;;;;;;34.75;32.75;;;;;3.49;55.99;100663.00;5044969;28;45578;-61
2022/12/12 08:59:13;;;;;;;;;51.50;38.50;;;;;3.40;56.12;100644.94;5038196;28;46559;-61
2022/12/12 09:01:39;;;;;;;;;43.50;37.50;;;;;3.18;55.30;100602.38;5040271;28;45590;-61
2022/12/12 09:04:04;;;;;;;;;49.75;40.75;;;;;2.73;55.56;100512.91;5042435;28;45619;-60
2022/12/12 09:06:30;;;;;;;;;45.75;38.25;;;;;3.50;55.42;100662.19;5037195;28;45448;-61
2022/12/12 09:08:56;;;;;;;;;36.75;27.00;;;;;3.27;55.22;100655.69;5047911;28;45538;-61
2022/12/12 09:11:22;;;;;;;;;40.50;35.75;;;;;3.29;55.71;100664.56;5041669;28;45516;-60
2022/12/12 09:13:48;;;;;;;;;41.75;30.50;;;;;3.13;55.98;100665.47;5038602;28;46030;-61
2022/12/12 09:16:14;;;;;;;;;31.50;27.50;;;;;2.86;56.11;100622.66;5035174;28;45321;-60
2022/12/12 09:18:39;;;;;;;;;37.00;32.50;;;;;3.17;55.72;100656.91;5037884;28;47097;-60
2022/12/12 09:21:05;;;;;;;;;76.75;55.25;;;;;3.27;55.72;100663.59;5035378;28;45738;-59
2022/12/12 09:23:31;;;;;;;;;44.50;37.75;;;;;3.18;56.05;100660.44;5046169;28;45363;-62
2022/12/12 09:25:57;;;;;;;;;46.25;38.25;;;;;3.14;56.05;100662.91;5041413;28;45656;-62
2022/12/12 09:28:24;;;;;;;;;40.50;35.00;;;;;3.10;56.31;100660.94;5040348;28;45327;-61
2022/12/12 09:30:50;;;;;;;;;43.25;31.50;;;;;3.19;56.39;100649.06;5038087;28;45931;-60
2022/12/12 09:33:16;;;;;;;;;46.50;35.75;;;;;2.94;56.26;100598.47;5033292;28;45291;-62
2022/12/12 09:35:42;;;;;;;;;50.50;38.00;;;;;3.11;55.54;100649.53;5035411;28;45486;-61
2022/12/12 09:38:08;;;;;;;;;48.00;38.00;;;;;3.09;56.48;100651.19;5038868;28;45521;-62
2022/12/12 09:40:52;;;;;;;;;40.75;34.00;;;;;3.12;55.79;100643.44;5037733;28;45510;-60
2022/12/12 09:43:21;;;;;;;;;32.75;31.75;;;;;3.23;55.85;100645.75;5033839;28;45473;-59
2022/12/12 09:45:47;;;;;;;;;64.50;48.00;;;;;3.33;55.29;100642.78;5034783;28;45687;-59
2022/12/12 09:48:43;;;;;;;;;47.75;40.00;;;;;3.24;55.66;100630.00;5034023;28;47085;-61
2022/12/12 09:51:09;;;;;;;;;77.25;59.50;;;;;3.45;55.54;100645.19;5042323;28;45444;-62
2022/12/12 09:53:36;;;;;;;;;73.25;52.00;;;;;3.50;55.17;100647.25;5040231;28;45477;-60
2022/12/12 09:56:23;;;;;;;;;68.75;50.00;;;;;3.61;54.70;100636.31;5045575;28;45349;-62
2022/12/12 09:59:17;;;;;;;;;46.50;37.00;;;;;3.49;54.38;100639.22;5046710;28;46700;-59
2022/12/12 10:02:04;;;;;;;;;49.00;36.00;;;;;3.43;54.89;100636.25;5042727;28;45314;-62
2022/12/12 10:04:32;;;;;;;;;47.25;34.75;;;;;3.50;55.09;100627.84;5041968;28;45421;-61
2022/12/12 10:07:24;;;;;;;;;61.50;44.50;;;;;3.58;54.80;100636.16;5046575;28;45577;-64
2022/12/12 10:10:21;;;;;;;;;43.75;37.50;;;;;3.65;54.47;100633.94;5039741;28;45552;-63
2022/12/12 10:12:47;;;;;;;;;42.25;32.75;;;;;3.58;54.33;100618.59;5045649;28;45743;-64
2022/12/12 10:15:40;;;;;;;;;40.00;34.50;;;;;3.61;53.92;100624.03;5044998;28;45515;-64
2022/12/12 10:18:13;;;;;;;;;42.25;33.25;;;;;3.47;54.27;100614.47;5035222;28;45377;-64
2022/12/12 10:20:52;;;;;;;;;53.75;38.00;;;;;3.54;54.27;100613.97;5033393;28;46076;-65
2022/12/12 10:23:25;;;;;;;;;48.50;32.75;;;;;3.53;54.11;100613.88;5050577;28;44696;-66
2022/12/12 10:25:55;;;;;;;;;43.50;29.00;;;;;3.55;54.18;100606.94;5041805;28;45438;-64
2022/12/12 10:28:24;;;;;;;;;41.50;30.00;;;;;3.39;54.43;100602.59;5042598;28;45401;-65
2022/12/12 10:31:12;;;;;;;;;47.00;32.00;;;;;3.26;54.75;100608.97;5038485;28;46353;-64
2022/12/12 10:33:52;;;;;;;;;42.00;33.50;;;;;3.20;54.66;100611.25;5035020;28;45396;-64
2022/12/12 10:36:33;;;;;;;;;45.75;37.75;;;;;3.08;55.24;100586.03;5040504;28;45424;-62
2022/12/12 10:39:29;;;;;;;;;39.25;34.75;;;;;3.14;54.88;100617.13;5041485;28;45259;-65
2022/12/12 10:42:06;;;;;;;;;40.25;35.50;;;;;3.14;55.03;100628.59;5039388;28;46295;-63
2022/12/12 10:45:09;;;;;;;;;71.00;53.00;;;;;3.12;55.11;100630.25;5037723;28;45436;-64
2022/12/12 10:47:35;;;;;;;;;36.25;33.25;;;;;2.99;55.31;100617.22;5043646;28;45371;-63
2022/12/12 10:50:09;;;;;;;;;45.00;33.50;;;;;2.98;55.15;100619.78;5042940;28;45324;-62
2022/12/12 10:52:35;;;;;;;;;39.00;30.75;;;;;3.00;55.67;100620.75;5041239;28;45527;-63
2022/12/12 10:55:00;;;;;;;;;49.00;37.25;;;;;3.12;55.07;100613.50;5047649;28;45418;-64
2022/12/12 10:57:32;;;;;;;;;58.50;40.75;;;;;3.19;55.14;100607.72;5039447;28;45495;-63
2022/12/12 10:59:58;;;;;;;;;50.25;39.75;;;;;3.23;54.87;100609.69;5039416;28;45452;-63
2022/12/12 11:02:38;;;;;;;;;66.25;49.25;;;;;3.38;54.73;100588.47;5046407;28;45994;-64
2022/12/12 11:05:03;;;;;;;;;46.50;38.25;;;;;3.47;54.01;100590.72;5040558;28;45439;-61
2022/12/12 11:07:30;;;;;;;;;50.50;36.25;;;;;3.57;53.88;100593.00;5036851;28;45701;-63
2022/12/12 11:09:57;;;;;;;;;69.50;49.25;;;;;3.71;53.33;100591.06;5048273;28;45705;-63
2022/12/12 11:12:32;;;;;;;;;58.75;45.50;;;;;3.76;52.72;100578.09;5052561;28;46059;-62
2022/12/12 11:15:11;;;;;;;;;42.00;37.75;;;;;3.84;52.84;100567.09;5043932;28;45351;-62
2022/12/12 11:17:38;;;;;;;;;55.00;43.50;;;;;3.94;52.76;100562.25;5037676;28;45481;-63
2022/12/12 11:20:07;;;;;;;;;47.50;39.00;;;;;3.92;52.66;100537.50;5036923;28;45505;-62
2022/12/12 11:22:33;;;;;;;;;53.00;41.50;;;;;4.14;52.62;100545.66;5037192;28;47208;-60
2022/12/12 11:24:59;;;;;;;;;52.00;40.75;;;;;4.21;51.67;100541.56;5046794;28;45427;-63
2022/12/12 11:27:39;;;;;;;;;48.50;34.50;;;;;4.09;51.88;100499.56;5046206;28;45283;-61
2022/12/12 11:30:07;;;;;;;;;45.25;35.25;;;;;4.21;51.13;100509.84;5043982;28;45488;-62
2022/12/12 11:32:46;;;;;;;;;56.00;40.75;;;;;4.22;51.57;100503.69;5041438;28;46613;-63
2022/12/12 11:35:26;;;;;;;;;47.25;33.50;;;;;4.21;51.50;100505.44;5043779;28;45355;-60
2022/12/12 11:37:57;;;;;;;;;42.50;36.50;;;;;4.12;51.82;100507.63;5038086;28;45520;-61
2022/12/12 11:40:26;;;;;;;;;62.25;46.25;;;;;4.12;52.14;100505.00;5046942;28;45404;-62
2022/12/12 11:43:07;;;;;;;;;57.75;43.00;;;;;3.90;52.55;100449.31;5036662;28;45498;-63